FranceFixed distance
Luchon Aneto Trail - Lat Challenge
8–9 Jul2023·2 stages
Distance
87km
Finishers
124102 men22 women
Winning time
10:04:36h
Median pace
5.75km/h
Pace distribution
124 finishers · 4.47–8.63 km/h · mean 5.95
Every finisher ran the same 87 km course, so these paces are directly comparable.
Histogram of finisher pace. 124 finishers ranged from 4.47 to 8.63 kilometres per hour, with a mean of 5.95 and a median of 5.75. The busiest band is 5.0 to 5.5 kilometres per hour, with 35 finishers.
Results
Ranks 1–50 of 124
| Rank | Runner | Time | Pace | Cat. | Placing |
|---|---|---|---|---|---|
| 1 | Bouliac SP | 10:04:36h | 8.63 | M23 | 1st M · 1st M23 |
| 2 | Sara Korrika | 10:04:59h | 8.63 | M23 | 2nd M · 2nd M23 |
| 3 | BO Biarritz | 10:18:15h | 8.44 | M23 | 3rd M · 3rd M23 |
| 4 | 10:27:48h | 8.31 | M40 | 4th M · 1st M40 | |
| 5 | White Star Athleics | 10:36:13h | 8.21 | MU23 | 5th M · 1st MU23 |
| 6 | Oxyjeunes | 10:57:10h | 7.94 | M35 | 6th M · 1st M35 |
| 7 | Avenir Aire sur Adour | 11:00:07h | 7.91 | M35 | 7th M · 2nd M35 |
| 8 | 11:32:01h | 7.54 | M23 | 8th M · 4th M23 | |
| 9 | 11:32:09h | 7.54 | M23 | 9th M · 5th M23 | |
| 10 | Bouliac Sports Plaisir | 11:35:03h | 7.51 | M35 | 10th M · 3rd M35 |
| 11 | Trail du Mourtis | 11:50:45h | 7.34 | W23 | 1st F · 1st W23 |
| 12 | OC GIF sur Yvette | 12:14:29h | 7.11 | M50 | 11th M · 1st M50 |
| 13 | Pass J'Aime Courir | 12:21:04h | 7.04 | M23 | 12th M · 6th M23 |
| 14 | Herbalife24 / Gosse Co... | 12:28:13h | 6.98 | M35 | 13th M · 4th M35 |
| 15 | Leognan Athletisme | 12:28:28h | 6.97 | M40 | 14th M · 2nd M40 |
| 16 | 12:32:46h | 6.93 | M40 | 15th M · 3rd M40 | |
| 17 | US Bazas | 12:36:48h | 6.90 | M45 | 16th M · 1st M45 |
| 18 | all Mountain Luchon | 12:38:04h | 6.89 | M23 | 17th M · 7th M23 |
| 19 | 12:40:28h | 6.86 | M35 | 18th M · 5th M35 | |
| 20 | 12:42:28h | 6.85 | W23 | 2nd F · 2nd W23 | |
| 21 | L'Union Club Athletique | 12:45:19h | 6.82 | M23 | 19th M · 8th M23 |
| 22 | Run IN Mouilleron | 12:45:40h | 6.82 | M45 | 20th M · 2nd M45 |
| 23 | US Talence | 12:48:51h | 6.79 | M23 | 21st M · 9th M23 |
| 24 | Uaml | 12:48:53h | 6.79 | M23 | 22nd M · 10th M23 |
| 25 | 12:50:52h | 6.77 | M35 | 23rd M · 6th M35 | |
| 26 | Boulias Sports Plaisir | 12:54:07h | 6.74 | W45 | 3rd F · 1st W45 |
| 27 | Crbp 31 | 13:15:31h | 6.56 | M23 | 24th M · 11th M23 |
| 28 | 13:18:58h | 6.53 | M40 | 25th M · 4th M40 | |
| 29 | 13:20:23h | 6.52 | M23 | 26th M · 12th M23 | |
| 30 | Team Trail 17 | 13:23:12h | 6.50 | M45 | 27th M · 3rd M45 |
| 31 | Desperado Trail | 13:23:35h | 6.50 | M50 | 28th M · 2nd M50 |
| 32 | Run IN Mouilleron | 13:28:32h | 6.46 | M35 | 29th M · 7th M35 |
| 33 | Portet Athletic Club | 13:31:19h | 6.43 | M40 | 30th M · 5th M40 |
| 34 | PAC | 13:31:28h | 6.43 | M23 | 31st M · 13th M23 |
| 35 | 13:31:50h | 6.43 | W45 | 4th F · 2nd W45 | |
| 36 | Team Trail 17 | 13:36:19h | 6.39 | M40 | 32nd M · 6th M40 |
| 37 | 13:39:32h | 6.37 | M40 | 33rd M · 7th M40 | |
| 38 | 13:44:00h | 6.33 | M35 | 34th M · 8th M35 | |
| 39 | Trailers des Aravis | 13:47:13h | 6.31 | M23 | 35th M · 14th M23 |
| 40 | 13:55:08h | 6.25 | W23 | 5th F · 3rd W23 | |
| 41 | 13:55:50h | 6.25 | M23 | 36th M · 15th M23 | |
| 42 | 13:56:57h | 6.24 | W35 | 6th F · 1st W35 | |
| 43 | Team Bouconne | 13:57:50h | 6.23 | W35 | 7th F · 2nd W35 |
| 44 | 13:58:12h | 6.23 | M45 | 37th M · 4th M45 | |
| 45 | Ouirun la Rochelle | 14:02:38h | 6.20 | M40 | 38th M · 8th M40 |
| 46 | 14:12:00h | 6.13 | M35 | 39th M · 9th M35 | |
| 47 | Oloron O Bearn Sport N... | 14:12:03h | 6.13 | M23 | 40th M · 16th M23 |
| 48 | Rrunning Castres | 14:14:12h | 6.11 | M45 | 41st M · 5th M45 |
| 49 | Courir-Fonsegrives | 14:16:11h | 6.10 | M35 | 42nd M · 10th M35 |
| 50 | Fadas Sport Aventure | 14:17:10h | 6.09 | M35 | 43rd M · 11th M35 |
- 1Bouliac SP1st M · 1st M23Time10:04:36hPace8.63Cat.M23
- 2Sara Korrika2nd M · 2nd M23Time10:04:59hPace8.63Cat.M23
- 3BO Biarritz3rd M · 3rd M23Time10:18:15hPace8.44Cat.M23
- 44th M · 1st M40Time10:27:48hPace8.31Cat.M40
- 5White Star Athleics5th M · 1st MU23Time10:36:13hPace8.21Cat.MU23
- 6Oxyjeunes6th M · 1st M35Time10:57:10hPace7.94Cat.M35
- 7Avenir Aire sur Adour7th M · 2nd M35Time11:00:07hPace7.91Cat.M35
- 88th M · 4th M23Time11:32:01hPace7.54Cat.M23
- 99th M · 5th M23Time11:32:09hPace7.54Cat.M23
- 10Bouliac Sports Plaisir10th M · 3rd M35Time11:35:03hPace7.51Cat.M35
- 11Trail du Mourtis1st F · 1st W23Time11:50:45hPace7.34Cat.W23
- 12OC GIF sur Yvette11th M · 1st M50Time12:14:29hPace7.11Cat.M50
- 13Pass J'Aime Courir12th M · 6th M23Time12:21:04hPace7.04Cat.M23
- 14Herbalife24 / Gosse Co...13th M · 4th M35Time12:28:13hPace6.98Cat.M35
- 15Leognan Athletisme14th M · 2nd M40Time12:28:28hPace6.97Cat.M40
- 1615th M · 3rd M40Time12:32:46hPace6.93Cat.M40
- 17US Bazas16th M · 1st M45Time12:36:48hPace6.90Cat.M45
- 18all Mountain Luchon17th M · 7th M23Time12:38:04hPace6.89Cat.M23
- 1918th M · 5th M35Time12:40:28hPace6.86Cat.M35
- 202nd F · 2nd W23Time12:42:28hPace6.85Cat.W23
- 21L'Union Club Athletique19th M · 8th M23Time12:45:19hPace6.82Cat.M23
- 22Run IN Mouilleron20th M · 2nd M45Time12:45:40hPace6.82Cat.M45
- 23US Talence21st M · 9th M23Time12:48:51hPace6.79Cat.M23
- 24Uaml22nd M · 10th M23Time12:48:53hPace6.79Cat.M23
- 2523rd M · 6th M35Time12:50:52hPace6.77Cat.M35
- 26Boulias Sports Plaisir3rd F · 1st W45Time12:54:07hPace6.74Cat.W45
- 27Crbp 3124th M · 11th M23Time13:15:31hPace6.56Cat.M23
- 2825th M · 4th M40Time13:18:58hPace6.53Cat.M40
- 2926th M · 12th M23Time13:20:23hPace6.52Cat.M23
- 30Team Trail 1727th M · 3rd M45Time13:23:12hPace6.50Cat.M45
- 31Desperado Trail28th M · 2nd M50Time13:23:35hPace6.50Cat.M50
- 32Run IN Mouilleron29th M · 7th M35Time13:28:32hPace6.46Cat.M35
- 33Portet Athletic Club30th M · 5th M40Time13:31:19hPace6.43Cat.M40
- 34PAC31st M · 13th M23Time13:31:28hPace6.43Cat.M23
- 354th F · 2nd W45Time13:31:50hPace6.43Cat.W45
- 36Team Trail 1732nd M · 6th M40Time13:36:19hPace6.39Cat.M40
- 3733rd M · 7th M40Time13:39:32hPace6.37Cat.M40
- 3834th M · 8th M35Time13:44:00hPace6.33Cat.M35
- 39Trailers des Aravis35th M · 14th M23Time13:47:13hPace6.31Cat.M23
- 405th F · 3rd W23Time13:55:08hPace6.25Cat.W23
- 4136th M · 15th M23Time13:55:50hPace6.25Cat.M23
- 426th F · 1st W35Time13:56:57hPace6.24Cat.W35
- 43Team Bouconne7th F · 2nd W35Time13:57:50hPace6.23Cat.W35
- 4437th M · 4th M45Time13:58:12hPace6.23Cat.M45
- 45Ouirun la Rochelle38th M · 8th M40Time14:02:38hPace6.20Cat.M40
- 4639th M · 9th M35Time14:12:00hPace6.13Cat.M35
- 47Oloron O Bearn Sport N...40th M · 16th M23Time14:12:03hPace6.13Cat.M23
- 48Rrunning Castres41st M · 5th M45Time14:14:12hPace6.11Cat.M45
- 49Courir-Fonsegrives42nd M · 10th M35Time14:16:11hPace6.10Cat.M35
- 50Fadas Sport Aventure43rd M · 11th M35Time14:17:10hPace6.09Cat.M35
Showing ranks 1–50 of 124